Time;durP1;ratioP1;P1;durP2;ratioP2;P2;SDS_P1;SDS_P2;PMS_P1;PMS_P2;Temp;Humidity;BMP_temperature;BMP_pressure;BME280_temperature;BME280_humidity;BME280_pressure;Samples;Min_cycle;Max_cycle;Signal;HPM_P1;HPM_P2
2021/08/30 00:02:03;;;;;;;2.92;1.67;;;20.70;53.10;;;;;;6228873;28;20037;-76
2021/08/30 00:05:06;;;;;;;6.00;1.75;;;20.60;53.00;;;;;;6251110;28;20060;-77
2021/08/30 00:08:07;;;;;;;3.17;1.73;;;20.60;53.10;;;;;;6251796;28;20121;-77
2021/08/30 00:11:09;;;;;;;4.00;2.10;;;20.50;53.30;;;;;;6249684;28;20037;-77
2021/08/30 00:14:10;;;;;;;5.28;2.72;;;20.50;53.60;;;;;;6250927;28;20037;-77
2021/08/30 00:17:10;;;;;;;4.70;2.10;;;20.30;53.60;;;;;;6250623;28;20374;-77
2021/08/30 00:20:15;;;;;;;10.68;2.55;;;20.20;53.80;;;;;;6252142;28;20056;-76
2021/08/30 00:23:16;;;;;;;6.88;2.42;;;20.20;54.00;;;;;;6235122;28;20379;-77
2021/08/30 00:26:17;;;;;;;5.00;2.30;;;20.20;54.10;;;;;;6251056;28;20463;-76
2021/08/30 00:29:20;;;;;;;9.85;2.30;;;20.20;54.80;;;;;;6250826;28;20052;-77
2021/08/30 00:32:22;;;;;;;4.43;2.55;;;20.10;54.10;;;;;;6248615;28;20030;-77
2021/08/30 00:35:23;;;;;;;8.35;2.40;;;20.10;54.20;;;;;;6251790;28;20382;-76
2021/08/30 00:38:24;;;;;;;8.02;2.00;;;20.00;54.40;;;;;;6251693;28;20041;-76
2021/08/30 00:41:26;;;;;;;4.65;2.30;;;20.00;54.50;;;;;;6250919;28;20438;-76
2021/08/30 00:44:28;;;;;;;5.15;1.92;;;19.90;54.60;;;;;;6250565;28;20109;-76
2021/08/30 00:47:29;;;;;;;3.13;1.92;;;20.60;55.10;;;;;;6233565;28;20039;-76
2021/08/30 00:50:30;;;;;;;4.07;2.10;;;19.80;54.80;;;;;;6251111;28;20025;-76
2021/08/30 00:53:31;;;;;;;4.90;2.08;;;19.80;54.90;;;;;;6251274;28;20466;-76
2021/08/30 00:56:32;;;;;;;6.00;2.55;;;19.80;54.90;;;;;;6248165;28;20129;-76
2021/08/30 00:59:35;;;;;;;5.55;2.30;;;19.70;54.90;;;;;;6233069;28;20386;-76
2021/08/30 01:02:36;;;;;;;11.82;2.83;;;19.70;55.00;;;;;;6248663;28;20463;-76
2021/08/30 01:05:44;;;;;;;3.17;2.10;;;19.70;55.10;;;;;;6225083;28;20040;-76
2021/08/30 01:09:14;;;;;;;6.90;2.92;;;19.70;55.10;;;;;;6249698;28;20520;-76
2021/08/30 01:12:43;;;;;;;8.50;2.95;;;19.60;55.10;;;;;;6226258;28;20155;-76
2021/08/30 01:15:45;;;;;;;5.93;2.22;;;19.60;55.30;;;;;;6249073;28;20034;-76
2021/08/30 01:18:49;;;;;;;4.80;2.15;;;19.50;55.30;;;;;;6225132;28;20128;-76
2021/08/30 01:21:51;;;;;;;5.13;2.28;;;19.50;55.40;;;;;;6232915;28;20391;-76
2021/08/30 01:24:53;;;;;;;4.53;2.00;;;19.50;55.50;;;;;;6249579;28;20033;-76
2021/08/30 01:27:55;;;;;;;8.25;2.85;;;19.40;55.70;;;;;;6232758;28;20047;-76
2021/08/30 01:30:58;;;;;;;4.90;2.88;;;19.40;55.80;;;;;;6248464;28;20484;-77
2021/08/30 01:33:58;;;;;;;9.45;2.50;;;19.30;55.80;;;;;;6248709;28;20380;-77
2021/08/30 01:36:59;;;;;;;10.40;2.17;;;19.30;56.00;;;;;;6250267;28;20025;-77
2021/08/30 01:40:02;;;;;;;5.65;2.30;;;19.30;56.10;;;;;;6232970;28;20128;-77
2021/08/30 01:43:05;;;;;;;7.40;2.30;;;19.20;56.20;;;;;;6230441;28;20045;-76
2021/08/30 01:46:06;;;;;;;4.40;2.63;;;19.20;56.30;;;;;;6225542;28;20390;-77
2021/08/30 01:49:09;;;;;;;6.10;2.22;;;19.20;56.40;;;;;;6207715;28;20185;-77
2021/08/30 01:52:11;;;;;;;4.07;2.17;;;19.20;56.40;;;;;;6217096;28;20042;-77
2021/08/30 02:01:36;;;;;;;5.78;2.47;;;19.20;56.50;;;;;;6238001;28;20355;-76
2021/08/30 02:04:37;;;;;;;3.75;1.77;;;19.10;56.50;;;;;;6244881;28;20068;-77
2021/08/30 02:07:38;;;;;;;3.75;2.10;;;19.20;56.50;;;;;;6229782;28;20128;-76
2021/08/30 02:10:39;;;;;;;2.03;1.52;;;19.10;56.50;;;;;;6246747;28;20030;-76
2021/08/30 02:13:40;;;;;;;5.55;1.92;;;19.10;56.60;;;;;;6245829;28;20034;-78
2021/08/30 02:16:41;;;;;;;4.85;2.38;;;19.00;56.70;;;;;;6245991;28;20029;-77
2021/08/30 02:19:51;;;;;;;5.75;2.05;;;19.00;56.80;;;;;;6245225;28;20045;-77
2021/08/30 02:22:52;;;;;;;3.00;2.08;;;19.00;56.90;;;;;;6245443;28;20037;-76
2021/08/30 02:25:57;;;;;;;3.55;2.03;;;18.60;56.80;;;;;;6224396;28;20481;-77
2021/08/30 02:29:06;;;;;;;3.03;1.95;;;19.00;57.10;;;;;;6244887;28;20052;-76
2021/08/30 02:32:07;;;;;;;3.88;2.03;;;18.90;57.10;;;;;;6227815;28;20033;-76
2021/08/30 02:35:10;;;;;;;3.72;2.20;;;18.90;57.10;;;;;;6221313;28;20030;-76
2021/08/30 02:38:14;;;;;;;3.70;2.40;;;18.90;57.20;;;;;;6220895;28;20072;-77
2021/08/30 02:41:16;;;;;;;3.58;2.33;;;18.80;57.20;;;;;;6225675;28;20037;-76
2021/08/30 02:44:17;;;;;;;5.50;2.17;;;18.80;57.20;;;;;;6245463;28;20026;-78
2021/08/30 02:47:19;;;;;;;4.43;2.22;;;18.80;57.20;;;;;;6244788;28;20026;-77
2021/08/30 02:50:22;;;;;;;5.25;2.25;;;18.80;57.30;;;;;;6246197;28;20474;-76
2021/08/30 02:53:24;;;;;;;2.85;2.13;;;18.80;57.40;;;;;;6226184;28;20351;-76
2021/08/30 02:56:26;;;;;;;4.85;2.97;;;18.80;57.40;;;;;;6239886;28;20029;-77
2021/08/30 02:59:28;;;;;;;3.83;1.88;;;18.80;57.40;;;;;;6244797;28;20045;-77
2021/08/30 03:02:30;;;;;;;3.67;2.38;;;18.70;57.50;;;;;;6244841;28;20033;-78
2021/08/30 03:05:34;;;;;;;3.13;1.95;;;18.70;57.60;;;;;;6227934;28;20473;-78
2021/08/30 03:08:35;;;;;;;4.63;1.98;;;18.70;57.70;;;;;;6245648;28;20025;-78
2021/08/30 03:11:39;;;;;;;3.90;2.28;;;18.60;57.70;;;;;;6243967;28;20025;-77
2021/08/30 03:14:43;;;;;;;3.95;2.05;;;18.60;58.40;;;;;;6221477;28;20054;-77
2021/08/30 03:17:45;;;;;;;4.03;2.35;;;18.60;57.90;;;;;;6220466;28;20034;-77
2021/08/30 03:20:47;;;;;;;3.30;1.95;;;18.60;58.70;;;;;;6218339;28;20057;-77
2021/08/30 03:23:49;;;;;;;8.57;2.13;;;18.50;58.30;;;;;;6221831;28;20360;-77
2021/08/30 03:26:53;;;;;;;3.47;2.30;;;18.50;58.40;;;;;;6226891;28;20526;-78
2021/08/30 03:29:55;;;;;;;6.32;3.38;;;18.40;58.50;;;;;;6245948;28;20037;-77
2021/08/30 03:32:57;;;;;;;4.13;2.05;;;18.40;58.50;;;;;;6228309;28;20100;-78
2021/08/30 03:35:58;;;;;;;6.35;2.25;;;18.00;58.40;;;;;;6248313;28;20041;-78
2021/08/30 03:39:00;;;;;;;2.28;1.58;;;18.30;58.70;;;;;;6246363;28;20049;-78
2021/08/30 03:42:03;;;;;;;4.22;2.30;;;18.30;58.70;;;;;;6221213;28;20038;-77
2021/08/30 03:45:06;;;;;;;3.92;2.15;;;18.20;58.80;;;;;;6221671;28;20528;-77
2021/08/30 03:48:07;;;;;;;3.05;1.80;;;18.20;58.90;;;;;;6226749;28;20033;-77
2021/08/30 03:51:09;;;;;;;5.90;2.13;;;18.20;58.90;;;;;;6209221;28;20037;-78
2021/08/30 03:54:10;;;;;;;6.30;2.50;;;18.20;59.00;;;;;;6225229;28;20128;-77
2021/08/30 03:57:14;;;;;;;5.20;2.28;;;18.20;58.90;;;;;;6240636;28;20420;-78
2021/08/30 04:00:15;;;;;;;2.70;1.80;;;18.20;58.90;;;;;;6225468;28;20125;-78
2021/08/30 04:03:18;;;;;;;3.97;2.20;;;18.20;59.00;;;;;;6240435;28;20128;-78
2021/08/30 04:06:20;;;;;;;9.02;2.22;;;18.20;58.90;;;;;;6242908;28;20044;-78
2021/08/30 04:09:21;;;;;;;4.45;2.08;;;18.30;59.00;;;;;;6252044;28;20033;-78
2021/08/30 04:12:23;;;;;;;4.00;2.05;;;18.20;58.90;;;;;;6225437;28;20096;-78
2021/08/30 04:15:25;;;;;;;3.88;2.22;;;18.30;59.10;;;;;;6250573;28;20414;-78
2021/08/30 04:18:25;;;;;;;7.28;2.10;;;18.20;59.00;;;;;;6250573;28;20383;-78
2021/08/30 04:21:26;;;;;;;4.55;2.55;;;18.20;59.20;;;;;;6248373;28;20040;-78
2021/08/30 04:24:27;;;;;;;4.95;2.13;;;18.20;59.20;;;;;;6250454;28;20458;-76
2021/08/30 04:27:28;;;;;;;4.28;2.58;;;18.20;59.30;;;;;;6248408;28;20048;-76
2021/08/30 04:30:29;;;;;;;4.13;2.15;;;18.20;59.30;;;;;;6251445;28;20041;-76
2021/08/30 04:33:30;;;;;;;4.53;2.42;;;18.20;59.40;;;;;;6249657;28;20101;-76
2021/08/30 04:36:31;;;;;;;5.00;2.38;;;18.20;59.90;;;;;;6250663;28;20033;-77
2021/08/30 04:39:32;;;;;;;3.97;2.38;;;18.20;59.30;;;;;;6251248;28;20478;-77
2021/08/30 04:42:33;;;;;;;6.10;2.70;;;18.20;59.30;;;;;;6244307;28;20482;-78
2021/08/30 04:45:34;;;;;;;5.22;2.70;;;18.20;59.20;;;;;;6224475;28;20030;-77
2021/08/30 04:48:35;;;;;;;5.63;2.60;;;18.20;59.30;;;;;;6226668;28;20096;-77
2021/08/30 04:51:35;;;;;;;10.27;3.00;;;18.10;59.30;;;;;;6225276;28;20034;-77
2021/08/30 04:54:36;;;;;;;9.15;2.65;;;18.10;59.40;;;;;;6216250;28;20044;-77
2021/08/30 04:57:37;;;;;;;5.80;2.60;;;18.00;59.50;;;;;;6200454;28;20463;-77
2021/08/30 05:00:39;;;;;;;3.33;2.08;;;18.00;59.60;;;;;;6246790;28;20033;-77
2021/08/30 05:03:40;;;;;;;6.35;2.30;;;18.00;59.70;;;;;;6249271;28;20462;-77
2021/08/30 05:06:40;;;;;;;5.25;2.45;;;18.00;59.80;;;;;;6233120;28;20040;-77
2021/08/30 05:09:41;;;;;;;4.18;2.08;;;18.00;59.70;;;;;;6232824;28;20029;-77
2021/08/30 05:12:42;;;;;;;6.18;2.47;;;18.10;59.80;;;;;;6249541;28;20056;-77
2021/08/30 05:15:43;;;;;;;3.83;2.30;;;18.10;59.70;;;;;;6249437;28;20033;-77
2021/08/30 05:18:44;;;;;;;3.22;1.75;;;18.10;59.80;;;;;;6232297;28;20462;-77
2021/08/30 05:21:45;;;;;;;8.13;2.72;;;18.10;59.60;;;;;;6249405;28;20048;-77
2021/08/30 05:24:46;;;;;;;4.78;2.83;;;18.20;59.60;;;;;;6249115;28;20087;-77
2021/08/30 05:27:48;;;;;;;6.72;2.25;;;18.20;59.50;;;;;;6249757;28;20466;-77
2021/08/30 05:30:49;;;;;;;4.28;2.17;;;17.50;59.00;;;;;;6250117;28;20061;-78
2021/08/30 05:33:50;;;;;;;4.60;2.20;;;18.40;59.30;;;;;;6247369;28;20470;-77
2021/08/30 05:36:51;;;;;;;5.95;3.30;;;18.40;59.20;;;;;;6246102;28;20061;-77
2021/08/30 05:39:52;;;;;;;4.85;2.38;;;18.40;59.10;;;;;;6247257;28;20041;-77
2021/08/30 05:42:53;;;;;;;4.97;2.55;;;18.40;59.00;;;;;;6223354;28;20169;-77
2021/08/30 05:45:54;;;;;;;5.28;2.20;;;18.40;59.00;;;;;;6248546;28;20048;-78
2021/08/30 05:48:55;;;;;;;3.80;2.67;;;18.40;59.00;;;;;;6248665;28;20048;-77
2021/08/30 05:51:56;;;;;;;4.90;2.75;;;18.40;59.00;;;;;;6249275;28;20029;-77
2021/08/30 05:54:56;;;;;;;4.50;2.58;;;18.40;59.00;;;;;;6248451;28;20040;-77
2021/08/30 05:57:57;;;;;;;5.50;1.98;;;18.40;58.90;;;;;;6248429;28;20025;-77
2021/08/30 06:00:58;;;;;;;4.07;2.20;;;18.40;59.00;;;;;;6248233;28;20387;-77
2021/08/30 06:03:59;;;;;;;5.57;2.55;;;18.40;58.90;;;;;;6247559;28;20052;-77
2021/08/30 06:07:00;;;;;;;5.80;2.28;;;18.40;58.90;;;;;;6248304;28;20051;-76
2021/08/30 06:10:02;;;;;;;5.18;2.60;;;18.40;58.80;;;;;;6230771;28;20425;-77
2021/08/30 06:13:02;;;;;;;3.85;2.05;;;18.40;58.80;;;;;;6231585;28;20041;-77
2021/08/30 06:16:04;;;;;;;8.68;2.45;;;18.40;58.70;;;;;;6247318;28;20056;-77
2021/08/30 06:19:04;;;;;;;7.90;2.88;;;18.50;58.70;;;;;;6247248;28;20406;-77
2021/08/30 06:22:07;;;;;;;5.15;2.58;;;18.50;58.60;;;;;;6248092;28;20038;-77
2021/08/30 06:25:08;;;;;;;5.35;2.40;;;18.60;58.50;;;;;;6230967;28;20033;-77
2021/08/30 06:28:10;;;;;;;4.35;2.30;;;18.60;58.40;;;;;;6247288;28;20429;-78
2021/08/30 06:31:10;;;;;;;6.35;2.80;;;18.70;58.30;;;;;;6214837;28;20041;-77
2021/08/30 06:34:11;;;;;;;6.72;2.47;;;18.70;58.20;;;;;;6246471;28;20040;-78
2021/08/30 06:37:12;;;;;;;9.00;3.05;;;18.80;58.20;;;;;;6230935;28;20051;-77
2021/08/30 06:40:13;;;;;;;7.97;3.15;;;18.80;58.10;;;;;;6247323;28;20049;-77
2021/08/30 06:43:14;;;;;;;7.15;2.78;;;18.70;58.10;;;;;;6231466;28;20045;-78
2021/08/30 06:46:15;;;;;;;7.15;2.97;;;18.70;58.10;;;;;;6222562;28;20535;-77
2021/08/30 06:49:16;;;;;;;5.55;2.90;;;18.70;58.10;;;;;;6246592;28;20033;-77
2021/08/30 06:52:17;;;;;;;4.25;2.40;;;18.80;58.10;;;;;;6229676;28;20402;-77
2021/08/30 06:55:18;;;;;;;6.43;2.95;;;18.80;58.00;;;;;;6246071;28;20033;-76
2021/08/30 06:58:19;;;;;;;7.53;2.92;;;18.80;58.00;;;;;;6247122;28;20072;-77
2021/08/30 07:01:20;;;;;;;4.68;2.90;;;18.80;57.90;;;;;;6230843;28;20045;-77
2021/08/30 07:04:21;;;;;;;4.72;2.90;;;18.90;57.90;;;;;;6245713;28;20037;-77
2021/08/30 07:07:22;;;;;;;9.07;3.42;;;18.90;57.80;;;;;;6228921;28;20401;-77
2021/08/30 07:10:23;;;;;;;3.88;2.85;;;18.90;57.80;;;;;;6247524;28;20041;-77
2021/08/30 07:13:24;;;;;;;7.45;2.83;;;18.10;57.30;;;;;;6245573;28;20030;-78
2021/08/30 07:16:25;;;;;;;6.50;3.17;;;19.00;57.60;;;;;;6247568;28;20025;-78
2021/08/30 07:19:26;;;;;;;3.75;2.45;;;19.00;57.50;;;;;;6246923;28;20033;-77
2021/08/30 07:22:27;;;;;;;5.07;2.90;;;19.10;57.50;;;;;;6251843;28;20060;-77
2021/08/30 07:25:28;;;;;;;5.07;2.90;;;19.10;57.40;;;;;;6252595;28;20068;-78
2021/08/30 07:28:29;;;;;;;4.28;3.00;;;19.20;57.40;;;;;;6251805;28;20045;-78
2021/08/30 07:31:30;;;;;;;4.03;2.40;;;19.30;57.20;;;;;;6250512;28;20037;-78
2021/08/30 07:34:31;;;;;;;4.18;2.65;;;19.40;57.00;;;;;;6232504;28;20037;-78
2021/08/30 07:37:33;;;;;;;4.40;2.80;;;19.50;56.80;;;;;;6234727;28;20061;-78
2021/08/30 07:40:34;;;;;;;5.78;2.75;;;19.70;56.50;;;;;;6251171;28;20382;-78
2021/08/30 07:43:35;;;;;;;11.02;3.50;;;19.70;56.20;;;;;;6234904;28;20125;-77
2021/08/30 07:46:36;;;;;;;8.38;2.97;;;19.80;56.20;;;;;;6251128;28;20029;-78
2021/08/30 07:49:37;;;;;;;5.72;3.08;;;19.80;55.90;;;;;;6251198;28;20458;-79
2021/08/30 07:52:38;;;;;;;6.28;3.20;;;19.80;55.80;;;;;;6254470;28;20458;-77
2021/08/30 07:55:39;;;;;;;9.07;3.38;;;19.90;55.70;;;;;;6254035;28;20367;-78
2021/08/30 07:58:40;;;;;;;4.78;2.67;;;20.00;55.70;;;;;;6234544;28;20033;-78
2021/08/30 08:01:41;;;;;;;5.70;3.22;;;18.60;54.30;;;;;;6250880;28;20029;-76
2021/08/30 08:04:41;;;;;;;6.03;3.40;;;20.00;55.50;;;;;;6251135;28;20087;-77
2021/08/30 08:07:42;;;;;;;4.70;2.67;;;19.40;55.70;;;;;;6250452;28;20425;-77
2021/08/30 08:10:43;;;;;;;10.88;2.55;;;20.10;55.30;;;;;;6233936;28;20512;-77
2021/08/30 08:13:44;;;;;;;7.22;3.00;;;20.20;55.20;;;;;;6251229;28;20056;-77
2021/08/30 08:16:45;;;;;;;8.90;2.72;;;20.30;55.00;;;;;;6233334;28;20407;-77
2021/08/30 08:19:46;;;;;;;5.40;2.85;;;20.50;54.90;;;;;;6249583;28;20427;-77
2021/08/30 08:22:47;;;;;;;7.32;2.85;;;20.60;54.60;;;;;;6250858;28;20364;-77
2021/08/30 08:25:48;;;;;;;6.45;3.03;;;20.70;54.40;;;;;;6250762;28;20431;-78
2021/08/30 08:28:49;;;;;;;4.55;2.47;;;20.80;54.20;;;;;;6249252;28;20147;-77
2021/08/30 08:31:51;;;;;;;6.03;3.20;;;20.90;54.00;;;;;;6249390;28;20148;-77
2021/08/30 08:34:52;;;;;;;7.57;3.00;;;21.00;53.90;;;;;;6231994;28;20053;-78
2021/08/30 08:37:53;;;;;;;7.32;2.63;;;21.10;53.60;;;;;;6233196;28;20099;-77
2021/08/30 08:40:53;;;;;;;10.85;3.95;;;21.30;53.40;;;;;;6249392;28;20049;-77
2021/08/30 08:43:56;;;;;;;6.05;2.85;;;21.40;53.10;;;;;;6248570;28;20041;-77
2021/08/30 08:46:57;;;;;;;12.02;3.30;;;21.60;52.80;;;;;;6232659;28;20045;-77
2021/08/30 08:49:58;;;;;;;6.43;2.78;;;21.80;52.50;;;;;;6249077;28;20526;-76
2021/08/30 08:53:03;;;;;;;8.15;3.03;;;22.00;52.00;;;;;;6232574;28;20033;-77
2021/08/30 08:56:04;;;;;;;5.60;2.70;;;22.00;51.80;;;;;;6235138;28;20038;-77
2021/08/30 08:59:05;;;;;;;8.38;3.22;;;22.10;51.50;;;;;;6256203;28;20064;-78
2021/08/30 09:02:07;;;;;;;11.15;3.42;;;21.60;51.00;;;;;;6247734;28;20462;-76
2021/08/30 09:05:22;;;;;;;9.88;3.45;;;22.30;51.00;;;;;;6246676;28;20047;-79
2021/08/30 09:08:42;;;;;;;5.40;2.80;;;22.40;50.70;;;;;;6247427;28;20029;-78
2021/08/30 09:11:44;;;;;;;5.80;2.75;;;22.50;50.60;;;;;;6245405;28;20049;-79
2021/08/30 09:14:45;;;;;;;5.32;2.95;;;22.60;50.30;;;;;;6245842;28;20115;-78
2021/08/30 09:17:50;;;;;;;4.22;2.63;;;22.70;50.10;;;;;;6229306;28;20462;-78
2021/08/30 09:20:51;;;;;;;5.25;2.92;;;22.90;50.00;;;;;;6245401;28;20386;-78
2021/08/30 09:23:52;;;;;;;4.57;2.70;;;23.00;49.60;;;;;;6246967;28;20042;-77
2021/08/30 09:27:02;;;;;;;4.90;3.20;;;23.20;49.20;;;;;;6245132;28;20336;-78
2021/08/30 09:30:07;;;;;;;7.25;2.83;;;23.10;48.90;;;;;;6244669;28;20191;-77
2021/08/30 09:33:14;;;;;;;28.05;13.57;;;23.30;48.70;;;;;;6241366;28;20134;-79
2021/08/30 09:36:16;;;;;;;7.60;3.38;;;23.50;48.40;;;;;;6228297;28;20425;-79
2021/08/30 09:39:19;;;;;;;4.70;3.15;;;23.70;47.90;;;;;;6229271;28;20103;-78
2021/08/30 09:42:20;;;;;;;6.00;2.45;;;24.00;47.40;;;;;;6243999;28;20043;-77
2021/08/30 09:45:23;;;;;;;6.63;2.67;;;24.20;46.80;;;;;;6254217;28;20030;-78
2021/08/30 09:48:25;;;;;;;8.80;2.88;;;24.40;46.40;;;;;;6246374;28;20045;-78
2021/08/30 09:51:28;;;;;;;6.75;2.60;;;24.50;46.20;;;;;;6244290;28;20041;-78
2021/08/30 09:54:29;;;;;;;4.03;2.25;;;24.50;45.90;;;;;;6247402;28;20037;-77
2021/08/30 09:57:31;;;;;;;7.30;3.28;;;24.60;45.40;;;;;;6245458;28;20505;-78
2021/08/30 10:00:34;;;;;;;5.20;2.63;;;24.70;45.30;;;;;;6245659;28;20049;-78
2021/08/30 10:03:40;;;;;;;2.92;2.17;;;24.90;45.20;;;;;;6243580;28;20458;-78
2021/08/30 10:06:41;;;;;;;8.27;2.22;;;25.00;45.00;;;;;;6228627;28;20462;-77
2021/08/30 10:09:43;;;;;;;5.28;2.50;;;25.00;44.50;;;;;;6244841;28;20029;-78
2021/08/30 10:12:45;;;;;;;7.22;2.65;;;25.00;44.70;;;;;;6227175;28;20042;-77
2021/08/30 10:15:50;;;;;;;4.88;2.10;;;25.00;44.70;;;;;;6228024;28;20044;-77
2021/08/30 10:18:53;;;;;;;5.18;2.17;;;25.00;44.40;;;;;;6245168;28;20052;-79
2021/08/30 10:21:55;;;;;;;4.68;2.33;;;25.00;44.40;;;;;;6228723;28;20034;-78
2021/08/30 10:24:56;;;;;;;2.90;2.08;;;24.90;44.30;;;;;;6245038;28;20447;-78
2021/08/30 10:28:00;;;;;;;3.08;2.10;;;24.90;44.40;;;;;;6246441;28;20033;-78
2021/08/30 10:31:12;;;;;;;3.83;2.40;;;24.90;44.60;;;;;;6247810;28;20033;-77
2021/08/30 10:34:24;;;;;;;3.22;2.17;;;24.90;45.20;;;;;;6244543;28;20064;-78
2021/08/30 10:37:28;;;;;;;8.30;4.93;;;24.90;44.80;;;;;;6242912;28;20432;-77
2021/08/30 10:40:37;;;;;;;5.50;2.38;;;24.80;45.00;;;;;;6219761;28;20530;-78
2021/08/30 10:43:42;;;;;;;2.65;1.92;;;24.80;45.20;;;;;;6226728;28;20409;-78
2021/08/30 10:46:50;;;;;;;7.35;2.40;;;24.90;45.30;;;;;;6226974;28;20037;-78
2021/08/30 10:49:53;;;;;;;12.95;2.33;;;25.10;44.50;;;;;;6244891;28;20037;-77
2021/08/30 10:53:05;;;;;;;5.00;2.83;;;25.00;44.80;;;;;;6226814;28;20037;-78
2021/08/30 10:56:09;;;;;;;3.50;2.10;;;25.10;44.70;;;;;;6241098;28;20033;-78
2021/08/30 10:59:21;;;;;;;3.50;2.15;;;25.10;44.60;;;;;;6244650;28;20053;-78
2021/08/30 11:02:23;;;;;;;13.30;1.85;;;25.10;44.60;;;;;;6240039;28;20099;-76
2021/08/30 11:05:29;;;;;;;3.10;2.08;;;25.20;44.50;;;;;;6242179;28;20176;-78
2021/08/30 11:08:30;;;;;;;2.92;1.83;;;25.10;44.30;;;;;;6246128;28;20029;-78
2021/08/30 11:11:32;;;;;;;2.50;1.67;;;25.10;44.50;;;;;;6244811;28;20514;-80
2021/08/30 11:14:35;;;;;;;3.47;2.28;;;25.00;44.50;;;;;;6245964;28;20446;-78
2021/08/30 11:17:36;;;;;;;2.83;1.95;;;25.10;44.40;;;;;;6244931;28;20044;-77
2021/08/30 11:20:40;;;;;;;4.22;2.13;;;25.10;44.20;;;;;;6244584;28;20041;-78
2021/08/30 11:23:42;;;;;;;4.63;1.85;;;25.10;44.20;;;;;;6245075;28;20060;-77
2021/08/30 11:26:43;;;;;;;5.85;2.20;;;25.10;44.10;;;;;;6244870;28;20053;-80
2021/08/30 11:29:52;;;;;;;3.08;2.08;;;25.20;43.90;;;;;;6244156;28;20065;-77
2021/08/30 11:32:52;;;;;;;3.83;2.20;;;25.30;43.80;;;;;;6244737;28;20056;-78
2021/08/30 11:35:59;;;;;;;3.35;1.90;;;25.40;43.60;;;;;;6245596;28;20041;-78
2021/08/30 11:39:00;;;;;;;3.63;1.90;;;26.20;43.90;;;;;;6245423;28;20049;-78
2021/08/30 11:42:07;;;;;;;3.38;2.10;;;25.60;43.30;;;;;;6244137;28;20090;-78
2021/08/30 11:45:12;;;;;;;4.53;2.00;;;25.80;43.10;;;;;;6245405;28;20033;-77
2021/08/30 11:48:15;;;;;;;5.05;2.13;;;26.00;42.90;;;;;;6246123;28;20465;-77
2021/08/30 11:51:22;;;;;;;3.25;2.17;;;26.30;42.50;;;;;;6229374;28;20029;-77
2021/08/30 11:54:29;;;;;;;2.97;2.20;;;26.50;42.20;;;;;;6229452;28;20045;-79
2021/08/30 11:57:45;;;;;;;6.07;2.42;;;26.90;41.70;;;;;;6250347;28;20084;-79
2021/08/30 12:00:46;;;;;;;9.32;2.35;;;27.30;41.10;;;;;;6247856;28;20466;-78
2021/08/30 12:03:47;;;;;;;3.83;2.15;;;27.70;40.50;;;;;;6245860;28;20049;-79
2021/08/30 12:06:51;;;;;;;4.97;1.60;;;28.00;39.80;;;;;;6246879;28;20120;-78
2021/08/30 12:09:53;;;;;;;5.55;2.38;;;28.20;39.20;;;;;;6249561;28;20037;-78
2021/08/30 12:16:23;;;;;;;3.67;2.25;;;28.10;38.90;;;;;;6173344;28;20045;-78
2021/08/30 12:19:26;;;;;;;12.27;4.25;;;28.00;38.60;;;;;;6157759;28;20105;-78
2021/08/30 12:22:30;;;;;;;2.53;1.98;;;27.70;38.90;;;;;;6157862;28;20027;-78
2021/08/30 12:25:42;;;;;;;3.58;2.15;;;27.80;39.20;;;;;;6174132;28;20034;-78
2021/08/30 12:28:46;;;;;;;5.13;2.10;;;28.50;38.30;;;;;;6158507;28;20461;-78
2021/08/30 12:31:53;;;;;;;3.05;1.92;;;29.30;37.00;;;;;;6141705;28;20107;-78
2021/08/30 12:34:54;;;;;;;2.88;2.10;;;30.00;35.60;;;;;;6156052;28;20039;-78
2021/08/30 12:38:01;;;;;;;8.18;2.45;;;30.30;34.80;;;;;;6157319;28;20117;-78
2021/08/30 12:41:03;;;;;;;2.60;2.03;;;30.00;35.00;;;;;;6157291;28;20108;-78
2021/08/30 12:44:05;;;;;;;8.15;2.25;;;29.40;35.60;;;;;;6141631;28;20043;-78
2021/08/30 12:47:05;;;;;;;3.72;1.90;;;28.90;36.30;;;;;;6148950;28;20046;-78
2021/08/30 12:50:07;;;;;;;5.13;1.65;;;28.60;37.50;;;;;;6122300;28;20039;-78
2021/08/30 12:53:09;;;;;;;2.47;1.88;;;28.60;36.80;;;;;;6177316;28;20505;-78
2021/08/30 12:56:10;;;;;;;4.18;2.15;;;29.00;36.00;;;;;;6222919;28;20042;-78
2021/08/30 12:59:11;;;;;;;3.55;2.10;;;29.00;35.80;;;;;;6244834;28;20511;-78
2021/08/30 13:02:12;;;;;;;2.40;1.88;;;28.80;36.00;;;;;;6247531;28;20171;-77
2021/08/30 13:05:15;;;;;;;2.03;1.70;;;28.50;36.40;;;;;;6247402;28;20037;-78
2021/08/30 13:08:17;;;;;;;5.10;1.83;;;28.40;36.70;;;;;;6247453;28;20037;-79
2021/08/30 13:11:17;;;;;;;6.55;2.40;;;28.40;36.80;;;;;;6248275;28;20473;-79
2021/08/30 13:14:18;;;;;;;3.38;2.00;;;28.30;36.90;;;;;;6230897;28;20049;-78
2021/08/30 13:17:19;;;;;;;2.50;1.75;;;28.10;37.00;;;;;;6246892;28;20039;-77
2021/08/30 13:20:21;;;;;;;3.67;1.85;;;27.90;37.50;;;;;;6245660;28;20041;-79
2021/08/30 13:23:22;;;;;;;3.33;2.00;;;27.80;38.00;;;;;;6247018;28;20173;-78
2021/08/30 13:26:23;;;;;;;3.83;2.20;;;27.90;37.80;;;;;;6247220;28;20136;-77
2021/08/30 13:29:24;;;;;;;4.80;2.53;;;28.00;37.70;;;;;;6247732;28;20120;-78
2021/08/30 13:32:25;;;;;;;3.08;2.28;;;27.90;37.80;;;;;;6246599;28;20108;-78
2021/08/30 13:35:27;;;;;;;4.22;2.28;;;27.70;38.00;;;;;;6247346;28;20411;-78
2021/08/30 13:38:28;;;;;;;4.75;2.40;;;27.60;38.20;;;;;;6246590;28;20375;-78
2021/08/30 13:41:29;;;;;;;3.85;2.38;;;28.20;37.70;;;;;;6230220;28;20037;-78
2021/08/30 13:44:30;;;;;;;7.28;1.98;;;29.40;36.10;;;;;;6230336;28;20041;-79
2021/08/30 13:47:31;;;;;;;4.05;2.22;;;30.40;34.40;;;;;;6247033;28;20030;-77
2021/08/30 13:50:32;;;;;;;2.63;2.00;;;30.70;33.70;;;;;;6246123;28;20064;-79
2021/08/30 13:53:33;;;;;;;4.03;2.28;;;30.40;33.70;;;;;;6246077;28;20087;-77
2021/08/30 13:56:34;;;;;;;3.03;1.80;;;30.00;34.20;;;;;;6229642;28;20033;-78
2021/08/30 13:59:35;;;;;;;3.33;2.20;;;29.90;34.50;;;;;;6252972;28;20056;-79
2021/08/30 14:02:36;;;;;;;4.60;1.90;;;29.90;34.70;;;;;;6246981;28;20045;-80
2021/08/30 14:05:37;;;;;;;4.35;2.17;;;30.30;34.20;;;;;;6244656;28;20095;-79
2021/08/30 14:08:38;;;;;;;3.78;2.03;;;30.30;33.80;;;;;;6229897;28;20043;-78
2021/08/30 14:11:39;;;;;;;2.83;2.03;;;30.10;34.30;;;;;;6246071;28;20048;-78
2021/08/30 14:14:40;;;;;;;5.47;2.13;;;29.80;34.80;;;;;;6247287;28;20120;-78
2021/08/30 14:17:41;;;;;;;3.85;2.08;;;29.60;35.20;;;;;;6228904;28;20045;-78
2021/08/30 14:20:42;;;;;;;5.85;2.60;;;29.20;35.80;;;;;;6228134;28;20125;-78
2021/08/30 14:23:43;;;;;;;4.50;2.05;;;28.80;36.30;;;;;;6246269;28;20037;-78
2021/08/30 14:26:44;;;;;;;4.85;1.95;;;28.50;36.80;;;;;;6228616;28;20069;-78
2021/08/30 14:29:46;;;;;;;7.15;2.20;;;28.30;37.20;;;;;;6245418;28;20033;-78
2021/08/30 14:32:47;;;;;;;2.78;1.95;;;28.00;37.70;;;;;;6244867;28;20420;-78
2021/08/30 14:35:47;;;;;;;8.68;2.28;;;27.80;38.10;;;;;;6245612;28;20037;-77
2021/08/30 14:38:49;;;;;;;3.90;1.90;;;27.40;38.50;;;;;;6241955;28;20423;-77
2021/08/30 14:41:50;;;;;;;2.90;1.98;;;28.00;39.60;;;;;;6228031;28;20033;-77
2021/08/30 14:44:51;;;;;;;3.33;1.90;;;27.00;39.40;;;;;;6224825;28;20030;-78
2021/08/30 14:47:52;;;;;;;3.33;2.10;;;26.90;39.70;;;;;;6220186;28;20044;-78
2021/08/30 14:50:53;;;;;;;3.28;1.85;;;26.80;39.90;;;;;;6232481;28;20042;-78
2021/08/30 14:53:54;;;;;;;3.38;2.22;;;26.80;40.20;;;;;;6244263;28;20034;-78
2021/08/30 14:56:54;;;;;;;4.05;2.10;;;26.80;40.30;;;;;;6243751;28;20037;-79
2021/08/30 14:59:55;;;;;;;3.72;2.17;;;26.90;40.10;;;;;;6229223;28;20041;-81
2021/08/30 15:02:56;;;;;;;4.57;1.52;;;26.90;40.10;;;;;;6227684;28;20370;-79
2021/08/30 15:10:19;;;;;;;2.50;1.83;;;26.50;40.30;;;;;;6256316;28;20041;-78
2021/08/30 15:13:20;;;;;;;2.33;1.67;;;26.30;40.90;;;;;;6254402;28;20044;-78
2021/08/30 15:16:21;;;;;;;3.72;1.88;;;26.20;41.30;;;;;;6270913;28;20033;-77
2021/08/30 15:19:23;;;;;;;2.63;2.05;;;26.10;41.70;;;;;;6253856;28;20108;-78
2021/08/30 15:22:24;;;;;;;6.50;2.20;;;25.90;41.90;;;;;;6271853;28;20604;-78
2021/08/30 15:25:26;;;;;;;5.88;1.98;;;25.80;42.10;;;;;;6276741;28;20024;-78
2021/08/30 15:28:27;;;;;;;4.90;1.98;;;25.70;42.30;;;;;;6269351;28;20144;-78
2021/08/30 15:31:29;;;;;;;3.25;2.03;;;25.70;42.50;;;;;;6271043;28;20433;-77
2021/08/30 15:34:31;;;;;;;1.98;1.52;;;25.60;42.60;;;;;;6246940;28;20030;-76
2021/08/30 15:37:32;;;;;;;2.53;1.50;;;25.60;42.80;;;;;;6245867;28;20022;-78
2021/08/30 15:40:34;;;;;;;4.13;1.90;;;25.50;42.80;;;;;;6229526;28;20061;-77
2021/08/30 15:43:35;;;;;;;7.10;1.90;;;25.60;42.90;;;;;;6234298;28;20037;-78
2021/08/30 15:46:36;;;;;;;1.95;1.60;;;25.60;43.00;;;;;;6234009;28;20038;-78
2021/08/30 15:49:37;;;;;;;5.65;1.70;;;25.50;43.10;;;;;;6250279;28;20076;-78
2021/08/30 15:52:40;;;;;;;3.50;2.40;;;25.50;43.10;;;;;;6225970;28;20072;-77
2021/08/30 15:55:42;;;;;;;2.45;1.63;;;25.50;43.20;;;;;;6250469;28;20391;-77
2021/08/30 15:58:43;;;;;;;2.72;1.92;;;25.60;43.20;;;;;;6254631;28;20045;-77
2021/08/30 16:01:44;;;;;;;3.60;1.67;;;25.90;42.90;;;;;;6254994;28;20559;-77